This is the latest recevied weather packets stored in our database for station/object KA1ROH. If no packets are shown the sender has not sent any weather packets the latest 10 day(s).
| Time | Temp. | Humidity | Pressure | Rain* | Wind** | Luminosity | Snow |
|---|---|---|---|---|---|---|---|
| 1777884537 | 8.89° C | 76% | 1006.4 hPa | 0 mm | - | - | - |
| 1777880778 | 7.78° C | 71% | 1007.1 hPa | 0 mm | - | - | - |
| 1777872306 | 7.78° C | 59% | 1007.1 hPa | 0 mm | - | - | - |
| 1777868102 | 6.67° C | 64% | 1007.8 hPa | 0 mm | - | - | - |
| 1777866299 | 5° C | 70% | 1007.8 hPa | 0 mm | - | - | - |
| 1777852868 | 10° C | 55% | 1007.5 hPa | 0 mm | - | - | - |
| 1777849864 | 13.33° C | 40% | 1007.5 hPa | 0 mm | - | - | - |
| 1777844426 | 11.11° C | 47% | 1007.5 hPa | 0 mm | - | - | - |
| 1777840698 | 10.56° C | 49% | 1007.5 hPa | 0 mm | - | - | - |
| 1777836431 | 10° C | 53% | 1008.1 hPa | 0 mm | - | - | - |
| 1777831564 | 8.89° C | 54% | 1008.8 hPa | 0 mm | - | - | - |
| 1777830964 | 9.44° C | 54% | 1008.8 hPa | 0 mm | - | - | - |
| 1777828499 | 8.89° C | 56% | 1009.1 hPa | 0 mm | - | - | - |
| 1777827298 | 8.89° C | 58% | 1009.1 hPa | 0 mm | - | - | - |
| 1777826096 | 8.89° C | 59% | 1009.5 hPa | 0 mm | - | - | - |
| 1777825495 | 8.33° C | 63% | 1009.5 hPa | 0 mm | - | - | - |
| 1777824895 | 8.33° C | 64% | 1009.5 hPa | 0 mm | - | - | - |
| 1777823093 | 8.33° C | 62% | 1009.8 hPa | 0 mm | - | - | - |
| 1777821891 | 8.33° C | 62% | 1009.8 hPa | 0 mm | - | - | - |
| 1777816485 | 7.22° C | 73% | 1010.5 hPa | 0 mm | - | - | - |
| 1777805518 | 4.44° C | 95% | 1010.5 hPa | 0 mm | - | - | - |
| 1777804285 | 3.89° C | 95% | 1010.5 hPa | 0 mm | - | - | - |
| 1777802483 | 3.89° C | 94% | 1010.5 hPa | 0 mm | - | - | - |
| 1777798247 | 4.44° C | 92% | 1010.8 hPa | 0 mm | - | - | - |
| 1777795844 | 6.11° C | 84% | 1010.8 hPa | 0 mm | - | - | - |
* Rain latest hour (hover to see other rain measurements)
** Current wind speed in m/s (hover to see current wind gust speed)